sensor_id;sensor_type;location;lat;lon;timestamp;P1;durP1;ratioP1;P2;durP2;ratioP2
15102;SDS011;7652;53.584;9.998;2022-08-03T00:02:31;4.80;;;4.33;;
15102;SDS011;7652;53.584;9.998;2022-08-03T00:05:35;4.90;;;4.50;;
15102;SDS011;7652;53.584;9.998;2022-08-03T00:08:38;5.23;;;4.73;;
15102;SDS011;7652;53.584;9.998;2022-08-03T00:11:41;5.50;;;4.73;;
15102;SDS011;7652;53.584;9.998;2022-08-03T00:14:45;6.20;;;5.60;;
15102;SDS011;7652;53.584;9.998;2022-08-03T00:17:48;5.03;;;4.63;;
15102;SDS011;7652;53.584;9.998;2022-08-03T00:20:54;5.67;;;5.03;;
15102;SDS011;7652;53.584;9.998;2022-08-03T00:23:57;5.00;;;4.40;;
15102;SDS011;7652;53.584;9.998;2022-08-03T00:27:00;6.20;;;4.80;;
15102;SDS011;7652;53.584;9.998;2022-08-03T00:30:05;5.37;;;4.90;;
15102;SDS011;7652;53.584;9.998;2022-08-03T00:33:09;5.10;;;4.60;;
15102;SDS011;7652;53.584;9.998;2022-08-03T00:36:13;5.63;;;4.40;;
15102;SDS011;7652;53.584;9.998;2022-08-03T00:39:16;5.20;;;4.70;;
15102;SDS011;7652;53.584;9.998;2022-08-03T00:42:19;5.03;;;4.53;;
15102;SDS011;7652;53.584;9.998;2022-08-03T00:45:30;5.10;;;4.60;;
15102;SDS011;7652;53.584;9.998;2022-08-03T00:48:34;6.03;;;4.53;;
15102;SDS011;7652;53.584;9.998;2022-08-03T00:51:37;5.10;;;4.70;;
15102;SDS011;7652;53.584;9.998;2022-08-03T00:54:40;5.03;;;4.60;;
15102;SDS011;7652;53.584;9.998;2022-08-03T00:57:44;6.13;;;5.00;;
15102;SDS011;7652;53.584;9.998;2022-08-03T01:00:49;7.67;;;4.80;;
15102;SDS011;7652;53.584;9.998;2022-08-03T01:03:52;5.30;;;4.80;;
15102;SDS011;7652;53.584;9.998;2022-08-03T01:06:57;5.73;;;5.23;;
15102;SDS011;7652;53.584;9.998;2022-08-03T01:10:12;5.53;;;4.57;;
15102;SDS011;7652;53.584;9.998;2022-08-03T01:13:26;4.73;;;4.33;;
15102;SDS011;7652;53.584;9.998;2022-08-03T01:16:58;4.90;;;4.47;;
15102;SDS011;7652;53.584;9.998;2022-08-03T01:20:06;6.17;;;4.20;;
15102;SDS011;7652;53.584;9.998;2022-08-03T01:23:17;4.57;;;4.17;;
15102;SDS011;7652;53.584;9.998;2022-08-03T01:26:36;4.60;;;4.20;;
15102;SDS011;7652;53.584;9.998;2022-08-03T01:29:58;5.20;;;4.37;;
15102;SDS011;7652;53.584;9.998;2022-08-03T01:33:04;4.43;;;4.03;;
15102;SDS011;7652;53.584;9.998;2022-08-03T01:36:13;4.10;;;3.80;;
15102;SDS011;7652;53.584;9.998;2022-08-03T01:39:20;4.13;;;3.83;;
15102;SDS011;7652;53.584;9.998;2022-08-03T01:42:25;4.13;;;3.77;;
15102;SDS011;7652;53.584;9.998;2022-08-03T01:45:32;4.83;;;4.10;;
15102;SDS011;7652;53.584;9.998;2022-08-03T01:48:36;4.67;;;4.27;;
15102;SDS011;7652;53.584;9.998;2022-08-03T01:51:43;4.80;;;4.20;;
15102;SDS011;7652;53.584;9.998;2022-08-03T01:55:05;4.90;;;4.40;;
15102;SDS011;7652;53.584;9.998;2022-08-03T01:58:10;4.77;;;4.30;;
15102;SDS011;7652;53.584;9.998;2022-08-03T02:01:17;4.57;;;4.17;;
15102;SDS011;7652;53.584;9.998;2022-08-03T02:04:23;4.73;;;4.33;;
15102;SDS011;7652;53.584;9.998;2022-08-03T02:07:29;4.57;;;4.17;;
15102;SDS011;7652;53.584;9.998;2022-08-03T02:10:34;4.17;;;3.87;;
15102;SDS011;7652;53.584;9.998;2022-08-03T02:13:39;4.50;;;4.10;;
15102;SDS011;7652;53.584;9.998;2022-08-03T02:16:44;4.47;;;4.17;;
15102;SDS011;7652;53.584;9.998;2022-08-03T02:19:47;4.90;;;4.40;;
15102;SDS011;7652;53.584;9.998;2022-08-03T02:22:52;4.33;;;4.00;;
15102;SDS011;7652;53.584;9.998;2022-08-03T02:25:56;4.70;;;4.30;;
15102;SDS011;7652;53.584;9.998;2022-08-03T02:29:04;4.40;;;4.07;;
15102;SDS011;7652;53.584;9.998;2022-08-03T02:32:19;4.30;;;4.00;;
15102;SDS011;7652;53.584;9.998;2022-08-03T02:35:32;4.23;;;3.83;;
15102;SDS011;7652;53.584;9.998;2022-08-03T02:38:38;5.60;;;4.30;;
15102;SDS011;7652;53.584;9.998;2022-08-03T02:41:44;4.40;;;4.10;;
15102;SDS011;7652;53.584;9.998;2022-08-03T02:44:51;4.40;;;3.50;;
15102;SDS011;7652;53.584;9.998;2022-08-03T02:47:59;4.20;;;3.83;;
15102;SDS011;7652;53.584;9.998;2022-08-03T02:51:06;4.40;;;4.00;;
15102;SDS011;7652;53.584;9.998;2022-08-03T02:54:10;4.23;;;3.83;;
15102;SDS011;7652;53.584;9.998;2022-08-03T02:57:16;4.27;;;3.90;;
15102;SDS011;7652;53.584;9.998;2022-08-03T03:00:21;4.27;;;3.90;;
15102;SDS011;7652;53.584;9.998;2022-08-03T03:03:30;4.57;;;4.20;;
15102;SDS011;7652;53.584;9.998;2022-08-03T03:06:45;4.80;;;4.40;;
15102;SDS011;7652;53.584;9.998;2022-08-03T03:09:49;4.77;;;4.27;;
15102;SDS011;7652;53.584;9.998;2022-08-03T03:12:54;4.63;;;4.03;;
15102;SDS011;7652;53.584;9.998;2022-08-03T03:15:59;4.77;;;4.47;;
15102;SDS011;7652;53.584;9.998;2022-08-03T03:19:05;5.27;;;4.67;;
15102;SDS011;7652;53.584;9.998;2022-08-03T03:22:10;4.57;;;4.27;;
15102;SDS011;7652;53.584;9.998;2022-08-03T03:25:15;5.37;;;4.87;;
15102;SDS011;7652;53.584;9.998;2022-08-03T03:28:19;4.80;;;4.40;;
15102;SDS011;7652;53.584;9.998;2022-08-03T03:31:24;4.50;;;4.10;;
15102;SDS011;7652;53.584;9.998;2022-08-03T03:34:29;4.40;;;4.00;;
15102;SDS011;7652;53.584;9.998;2022-08-03T03:37:32;4.90;;;4.47;;
15102;SDS011;7652;53.584;9.998;2022-08-03T03:40:35;4.57;;;4.17;;
15102;SDS011;7652;53.584;9.998;2022-08-03T03:43:38;6.63;;;4.67;;
15102;SDS011;7652;53.584;9.998;2022-08-03T03:46:42;5.50;;;5.00;;
15102;SDS011;7652;53.584;9.998;2022-08-03T03:49:46;4.90;;;4.50;;
15102;SDS011;7652;53.584;9.998;2022-08-03T03:52:52;4.53;;;4.13;;
15102;SDS011;7652;53.584;9.998;2022-08-03T03:55:55;4.90;;;4.50;;
15102;SDS011;7652;53.584;9.998;2022-08-03T03:59:03;4.77;;;4.40;;
15102;SDS011;7652;53.584;9.998;2022-08-03T04:02:06;5.23;;;4.80;;
15102;SDS011;7652;53.584;9.998;2022-08-03T04:05:12;5.20;;;4.70;;
15102;SDS011;7652;53.584;9.998;2022-08-03T04:08:33;5.67;;;5.07;;
15102;SDS011;7652;53.584;9.998;2022-08-03T04:11:55;5.37;;;4.87;;
15102;SDS011;7652;53.584;9.998;2022-08-03T04:15:01;5.20;;;4.53;;
15102;SDS011;7652;53.584;9.998;2022-08-03T04:18:07;4.90;;;4.50;;
15102;SDS011;7652;53.584;9.998;2022-08-03T04:21:15;5.03;;;4.50;;
15102;SDS011;7652;53.584;9.998;2022-08-03T04:24:20;5.00;;;4.50;;
15102;SDS011;7652;53.584;9.998;2022-08-03T04:27:27;5.40;;;4.90;;
15102;SDS011;7652;53.584;9.998;2022-08-03T04:30:35;5.87;;;5.13;;
15102;SDS011;7652;53.584;9.998;2022-08-03T04:33:40;4.87;;;4.47;;
15102;SDS011;7652;53.584;9.998;2022-08-03T04:36:48;5.97;;;4.87;;
15102;SDS011;7652;53.584;9.998;2022-08-03T04:39:55;4.97;;;4.60;;
15102;SDS011;7652;53.584;9.998;2022-08-03T04:42:59;4.80;;;4.43;;
15102;SDS011;7652;53.584;9.998;2022-08-03T04:46:04;5.87;;;5.37;;
15102;SDS011;7652;53.584;9.998;2022-08-03T04:49:08;6.57;;;5.20;;
15102;SDS011;7652;53.584;9.998;2022-08-03T04:52:13;4.77;;;4.37;;
15102;SDS011;7652;53.584;9.998;2022-08-03T04:55:24;5.07;;;4.77;;
15102;SDS011;7652;53.584;9.998;2022-08-03T04:58:28;5.17;;;4.20;;
15102;SDS011;7652;53.584;9.998;2022-08-03T05:01:31;4.93;;;4.63;;
15102;SDS011;7652;53.584;9.998;2022-08-03T05:04:34;5.10;;;4.67;;
15102;SDS011;7652;53.584;9.998;2022-08-03T05:07:39;4.93;;;4.53;;
15102;SDS011;7652;53.584;9.998;2022-08-03T05:10:44;4.57;;;4.27;;
15102;SDS011;7652;53.584;9.998;2022-08-03T05:13:47;5.17;;;4.67;;
15102;SDS011;7652;53.584;9.998;2022-08-03T05:16:50;6.33;;;5.30;;
15102;SDS011;7652;53.584;9.998;2022-08-03T05:19:53;6.10;;;5.50;;
15102;SDS011;7652;53.584;9.998;2022-08-03T05:22:58;5.70;;;5.20;;
15102;SDS011;7652;53.584;9.998;2022-08-03T05:26:04;5.10;;;4.57;;
15102;SDS011;7652;53.584;9.998;2022-08-03T05:29:07;6.10;;;5.47;;
15102;SDS011;7652;53.584;9.998;2022-08-03T05:32:10;7.10;;;5.60;;
15102;SDS011;7652;53.584;9.998;2022-08-03T05:35:13;6.47;;;5.30;;
15102;SDS011;7652;53.584;9.998;2022-08-03T05:38:37;8.67;;;6.10;;
15102;SDS011;7652;53.584;9.998;2022-08-03T05:41:40;6.57;;;5.80;;
15102;SDS011;7652;53.584;9.998;2022-08-03T05:44:43;7.00;;;5.87;;
15102;SDS011;7652;53.584;9.998;2022-08-03T05:47:46;7.43;;;5.73;;
15102;SDS011;7652;53.584;9.998;2022-08-03T05:50:51;8.87;;;6.50;;
15102;SDS011;7652;53.584;9.998;2022-08-03T05:53:55;12.13;;;5.47;;
15102;SDS011;7652;53.584;9.998;2022-08-03T05:56:58;6.23;;;5.63;;
15102;SDS011;7652;53.584;9.998;2022-08-03T06:00:02;10.60;;;5.73;;
15102;SDS011;7652;53.584;9.998;2022-08-03T06:03:08;8.67;;;5.87;;
15102;SDS011;7652;53.584;9.998;2022-08-03T06:06:11;5.57;;;4.97;;
15102;SDS011;7652;53.584;9.998;2022-08-03T06:09:15;8.73;;;5.17;;
15102;SDS011;7652;53.584;9.998;2022-08-03T06:12:18;5.83;;;4.80;;
15102;SDS011;7652;53.584;9.998;2022-08-03T06:15:21;9.40;;;4.60;;
15102;SDS011;7652;53.584;9.998;2022-08-03T06:18:24;6.83;;;4.03;;
15102;SDS011;7652;53.584;9.998;2022-08-03T06:21:27;5.70;;;3.87;;
15102;SDS011;7652;53.584;9.998;2022-08-03T06:24:32;5.80;;;4.70;;
15102;SDS011;7652;53.584;9.998;2022-08-03T06:27:35;6.60;;;3.90;;
15102;SDS011;7652;53.584;9.998;2022-08-03T06:30:40;5.37;;;3.97;;
15102;SDS011;7652;53.584;9.998;2022-08-03T06:33:43;8.83;;;4.30;;
15102;SDS011;7652;53.584;9.998;2022-08-03T06:37:06;7.70;;;4.20;;
15102;SDS011;7652;53.584;9.998;2022-08-03T06:40:11;5.77;;;3.90;;
15102;SDS011;7652;53.584;9.998;2022-08-03T06:43:22;4.33;;;3.70;;
15102;SDS011;7652;53.584;9.998;2022-08-03T06:46:25;9.07;;;4.03;;
15102;SDS011;7652;53.584;9.998;2022-08-03T06:49:28;3.90;;;3.47;;
15102;SDS011;7652;53.584;9.998;2022-08-03T06:52:31;8.17;;;4.00;;
15102;SDS011;7652;53.584;9.998;2022-08-03T06:55:40;6.20;;;3.77;;
15102;SDS011;7652;53.584;9.998;2022-08-03T06:58:43;5.40;;;4.47;;
15102;SDS011;7652;53.584;9.998;2022-08-03T07:01:47;8.23;;;4.47;;
15102;SDS011;7652;53.584;9.998;2022-08-03T07:04:50;4.27;;;3.50;;
15102;SDS011;7652;53.584;9.998;2022-08-03T07:07:53;7.77;;;3.70;;
15102;SDS011;7652;53.584;9.998;2022-08-03T07:10:59;5.67;;;4.30;;
15102;SDS011;7652;53.584;9.998;2022-08-03T07:14:03;5.80;;;3.67;;
15102;SDS011;7652;53.584;9.998;2022-08-03T07:17:06;5.47;;;3.90;;
15102;SDS011;7652;53.584;9.998;2022-08-03T07:20:12;6.57;;;3.67;;
15102;SDS011;7652;53.584;9.998;2022-08-03T07:23:15;6.13;;;3.20;;
15102;SDS011;7652;53.584;9.998;2022-08-03T07:26:21;3.83;;;3.43;;
15102;SDS011;7652;53.584;9.998;2022-08-03T07:29:24;6.37;;;3.57;;
15102;SDS011;7652;53.584;9.998;2022-08-03T07:32:27;8.13;;;2.97;;
15102;SDS011;7652;53.584;9.998;2022-08-03T07:35:32;3.40;;;3.10;;
15102;SDS011;7652;53.584;9.998;2022-08-03T07:38:35;5.70;;;2.57;;
15102;SDS011;7652;53.584;9.998;2022-08-03T07:41:44;5.27;;;2.80;;
15102;SDS011;7652;53.584;9.998;2022-08-03T07:44:51;6.00;;;3.03;;
15102;SDS011;7652;53.584;9.998;2022-08-03T07:47:55;3.90;;;2.90;;
15102;SDS011;7652;53.584;9.998;2022-08-03T07:50:58;3.13;;;2.57;;
15102;SDS011;7652;53.584;9.998;2022-08-03T07:54:01;3.93;;;2.10;;
15102;SDS011;7652;53.584;9.998;2022-08-03T07:57:06;2.80;;;2.00;;
15102;SDS011;7652;53.584;9.998;2022-08-03T08:00:12;3.80;;;2.20;;
15102;SDS011;7652;53.584;9.998;2022-08-03T08:03:17;2.80;;;1.90;;
15102;SDS011;7652;53.584;9.998;2022-08-03T08:06:22;3.00;;;1.43;;
15102;SDS011;7652;53.584;9.998;2022-08-03T08:09:26;3.27;;;1.83;;
15102;SDS011;7652;53.584;9.998;2022-08-03T08:12:30;2.57;;;1.87;;
15102;SDS011;7652;53.584;9.998;2022-08-03T08:15:34;3.53;;;2.00;;
15102;SDS011;7652;53.584;9.998;2022-08-03T08:18:43;3.63;;;1.77;;
15102;SDS011;7652;53.584;9.998;2022-08-03T08:21:46;2.80;;;1.47;;
15102;SDS011;7652;53.584;9.998;2022-08-03T08:25:03;1.73;;;1.60;;
15102;SDS011;7652;53.584;9.998;2022-08-03T08:28:08;4.40;;;1.57;;
15102;SDS011;7652;53.584;9.998;2022-08-03T08:31:31;2.93;;;1.90;;
15102;SDS011;7652;53.584;9.998;2022-08-03T08:34:34;3.57;;;1.80;;
15102;SDS011;7652;53.584;9.998;2022-08-03T08:37:37;3.90;;;1.57;;
15102;SDS011;7652;53.584;9.998;2022-08-03T08:40:41;1.87;;;1.67;;
15102;SDS011;7652;53.584;9.998;2022-08-03T08:43:45;4.40;;;1.80;;
15102;SDS011;7652;53.584;9.998;2022-08-03T08:46:48;4.30;;;1.80;;
15102;SDS011;7652;53.584;9.998;2022-08-03T08:49:53;3.03;;;1.83;;
15102;SDS011;7652;53.584;9.998;2022-08-03T08:53:10;4.37;;;2.00;;
15102;SDS011;7652;53.584;9.998;2022-08-03T08:56:20;4.87;;;2.07;;
15102;SDS011;7652;53.584;9.998;2022-08-03T08:59:27;3.70;;;1.93;;
15102;SDS011;7652;53.584;9.998;2022-08-03T09:02:50;4.67;;;2.10;;
15102;SDS011;7652;53.584;9.998;2022-08-03T09:05:53;5.10;;;2.10;;
15102;SDS011;7652;53.584;9.998;2022-08-03T09:08:57;2.13;;;1.97;;
15102;SDS011;7652;53.584;9.998;2022-08-03T09:12:00;3.97;;;2.20;;
15102;SDS011;7652;53.584;9.998;2022-08-03T09:15:25;3.47;;;2.03;;
15102;SDS011;7652;53.584;9.998;2022-08-03T09:18:30;3.00;;;1.80;;
15102;SDS011;7652;53.584;9.998;2022-08-03T09:21:33;3.03;;;2.00;;
15102;SDS011;7652;53.584;9.998;2022-08-03T09:24:37;3.73;;;1.87;;
15102;SDS011;7652;53.584;9.998;2022-08-03T09:28:15;2.53;;;1.73;;
15102;SDS011;7652;53.584;9.998;2022-08-03T09:31:41;5.80;;;1.90;;
15102;SDS011;7652;53.584;9.998;2022-08-03T09:34:46;4.80;;;1.70;;
15102;SDS011;7652;53.584;9.998;2022-08-03T09:37:53;6.70;;;2.20;;
15102;SDS011;7652;53.584;9.998;2022-08-03T09:41:16;4.60;;;1.80;;
15102;SDS011;7652;53.584;9.998;2022-08-03T09:44:20;4.13;;;1.80;;
15102;SDS011;7652;53.584;9.998;2022-08-03T09:47:37;2.50;;;1.67;;
15102;SDS011;7652;53.584;9.998;2022-08-03T09:50:48;5.33;;;1.70;;
15102;SDS011;7652;53.584;9.998;2022-08-03T09:57:27;2.63;;;1.30;;
15102;SDS011;7652;53.584;9.998;2022-08-03T10:00:32;2.60;;;1.40;;
15102;SDS011;7652;53.584;9.998;2022-08-03T10:03:57;4.07;;;2.00;;
15102;SDS011;7652;53.584;9.998;2022-08-03T10:07:05;1.70;;;1.40;;
15102;SDS011;7652;53.584;9.998;2022-08-03T10:10:10;5.50;;;1.50;;
15102;SDS011;7652;53.584;9.998;2022-08-03T10:13:32;3.70;;;1.47;;
15102;SDS011;7652;53.584;9.998;2022-08-03T10:16:36;2.93;;;1.47;;
15102;SDS011;7652;53.584;9.998;2022-08-03T10:19:41;4.33;;;1.77;;
15102;SDS011;7652;53.584;9.998;2022-08-03T10:22:44;3.53;;;1.57;;
15102;SDS011;7652;53.584;9.998;2022-08-03T10:25:52;2.20;;;1.67;;
15102;SDS011;7652;53.584;9.998;2022-08-03T10:29:01;4.63;;;1.70;;
15102;SDS011;7652;53.584;9.998;2022-08-03T10:32:14;2.27;;;1.60;;
15102;SDS011;7652;53.584;9.998;2022-08-03T10:35:24;5.60;;;1.70;;
15102;SDS011;7652;53.584;9.998;2022-08-03T10:38:28;2.67;;;1.53;;
15102;SDS011;7652;53.584;9.998;2022-08-03T10:41:35;2.43;;;1.60;;
15102;SDS011;7652;53.584;9.998;2022-08-03T10:44:44;3.97;;;1.57;;
15102;SDS011;7652;53.584;9.998;2022-08-03T10:47:49;2.23;;;1.57;;
15102;SDS011;7652;53.584;9.998;2022-08-03T10:50:55;2.30;;;1.37;;
15102;SDS011;7652;53.584;9.998;2022-08-03T10:53:58;2.47;;;1.87;;
15102;SDS011;7652;53.584;9.998;2022-08-03T10:57:02;4.67;;;1.50;;
15102;SDS011;7652;53.584;9.998;2022-08-03T11:00:27;2.87;;;1.30;;
15102;SDS011;7652;53.584;9.998;2022-08-03T11:07:21;3.10;;;1.73;;
15102;SDS011;7652;53.584;9.998;2022-08-03T11:10:30;3.60;;;1.83;;
15102;SDS011;7652;53.584;9.998;2022-08-03T11:13:33;4.33;;;1.57;;
15102;SDS011;7652;53.584;9.998;2022-08-03T11:16:37;3.20;;;1.80;;
15102;SDS011;7652;53.584;9.998;2022-08-03T11:19:42;2.87;;;1.60;;
15102;SDS011;7652;53.584;9.998;2022-08-03T11:22:59;3.83;;;1.43;;
15102;SDS011;7652;53.584;9.998;2022-08-03T11:26:10;6.43;;;1.50;;
15102;SDS011;7652;53.584;9.998;2022-08-03T11:29:26;3.70;;;1.70;;
15102;SDS011;7652;53.584;9.998;2022-08-03T11:35:58;2.67;;;1.58;;
15102;SDS011;7652;53.584;9.998;2022-08-03T11:39:12;5.07;;;2.40;;
15102;SDS011;7652;53.584;9.998;2022-08-03T11:45:55;2.85;;;1.58;;
15102;SDS011;7652;53.584;9.998;2022-08-03T11:49:02;3.33;;;1.38;;
15102;SDS011;7652;53.584;9.998;2022-08-03T11:52:11;4.77;;;1.43;;
15102;SDS011;7652;53.584;9.998;2022-08-03T11:55:16;3.78;;;1.60;;
15102;SDS011;7652;53.584;9.998;2022-08-03T11:58:22;4.50;;;1.40;;
15102;SDS011;7652;53.584;9.998;2022-08-03T12:01:45;4.18;;;1.52;;
15102;SDS011;7652;53.584;9.998;2022-08-03T12:04:49;6.82;;;1.65;;
15102;SDS011;7652;53.584;9.998;2022-08-03T12:07:52;3.78;;;1.80;;
15102;SDS011;7652;53.584;9.998;2022-08-03T12:11:10;3.33;;;1.52;;
15102;SDS011;7652;53.584;9.998;2022-08-03T12:14:15;3.45;;;1.48;;
15102;SDS011;7652;53.584;9.998;2022-08-03T12:17:38;3.78;;;1.45;;
15102;SDS011;7652;53.584;9.998;2022-08-03T12:20:42;3.97;;;1.60;;
15102;SDS011;7652;53.584;9.998;2022-08-03T12:23:46;4.55;;;1.90;;
15102;SDS011;7652;53.584;9.998;2022-08-03T12:26:50;7.97;;;1.60;;
15102;SDS011;7652;53.584;9.998;2022-08-03T12:30:00;2.30;;;1.55;;
15102;SDS011;7652;53.584;9.998;2022-08-03T12:33:15;4.50;;;1.67;;
15102;SDS011;7652;53.584;9.998;2022-08-03T12:36:21;5.32;;;1.52;;
15102;SDS011;7652;53.584;9.998;2022-08-03T12:39:25;5.38;;;1.85;;
15102;SDS011;7652;53.584;9.998;2022-08-03T12:42:33;8.23;;;1.70;;
15102;SDS011;7652;53.584;9.998;2022-08-03T12:45:37;3.58;;;1.50;;
15102;SDS011;7652;53.584;9.998;2022-08-03T12:49:00;4.60;;;1.63;;
15102;SDS011;7652;53.584;9.998;2022-08-03T12:52:06;3.65;;;1.42;;
15102;SDS011;7652;53.584;9.998;2022-08-03T12:55:09;4.43;;;1.58;;
15102;SDS011;7652;53.584;9.998;2022-08-03T12:58:31;5.07;;;1.60;;
15102;SDS011;7652;53.584;9.998;2022-08-03T13:01:37;5.75;;;2.10;;
15102;SDS011;7652;53.584;9.998;2022-08-03T13:04:55;3.42;;;1.85;;
15102;SDS011;7652;53.584;9.998;2022-08-03T13:08:00;2.72;;;1.25;;
15102;SDS011;7652;53.584;9.998;2022-08-03T13:11:16;3.53;;;1.73;;
15102;SDS011;7652;53.584;9.998;2022-08-03T13:14:21;3.53;;;1.48;;
15102;SDS011;7652;53.584;9.998;2022-08-03T13:17:24;5.22;;;1.73;;
15102;SDS011;7652;53.584;9.998;2022-08-03T13:20:28;4.68;;;2.67;;
15102;SDS011;7652;53.584;9.998;2022-08-03T13:23:31;3.63;;;1.92;;
15102;SDS011;7652;53.584;9.998;2022-08-03T13:26:34;4.40;;;1.90;;
15102;SDS011;7652;53.584;9.998;2022-08-03T13:29:39;2.92;;;1.90;;
15102;SDS011;7652;53.584;9.998;2022-08-03T13:32:43;3.35;;;1.20;;
15102;SDS011;7652;53.584;9.998;2022-08-03T13:35:46;3.10;;;1.50;;
15102;SDS011;7652;53.584;9.998;2022-08-03T13:38:49;3.78;;;1.85;;
15102;SDS011;7652;53.584;9.998;2022-08-03T13:41:52;4.80;;;1.67;;
15102;SDS011;7652;53.584;9.998;2022-08-03T13:44:56;4.82;;;2.10;;
15102;SDS011;7652;53.584;9.998;2022-08-03T13:48:00;2.55;;;1.73;;
15102;SDS011;7652;53.584;9.998;2022-08-03T13:51:03;3.60;;;1.85;;
15102;SDS011;7652;53.584;9.998;2022-08-03T13:54:23;2.25;;;1.67;;
15102;SDS011;7652;53.584;9.998;2022-08-03T13:57:26;4.30;;;1.67;;
15102;SDS011;7652;53.584;9.998;2022-08-03T14:00:50;3.10;;;1.85;;
15102;SDS011;7652;53.584;9.998;2022-08-03T14:03:53;3.05;;;1.80;;
15102;SDS011;7652;53.584;9.998;2022-08-03T14:06:58;3.92;;;1.90;;
15102;SDS011;7652;53.584;9.998;2022-08-03T14:10:01;6.85;;;1.67;;
15102;SDS011;7652;53.584;9.998;2022-08-03T14:13:04;4.93;;;1.63;;
15102;SDS011;7652;53.584;9.998;2022-08-03T14:16:09;4.13;;;1.58;;
15102;SDS011;7652;53.584;9.998;2022-08-03T14:19:17;7.32;;;2.13;;
15102;SDS011;7652;53.584;9.998;2022-08-03T14:22:25;4.43;;;1.88;;
15102;SDS011;7652;53.584;9.998;2022-08-03T14:25:29;3.03;;;1.70;;
15102;SDS011;7652;53.584;9.998;2022-08-03T14:28:51;3.85;;;1.70;;
15102;SDS011;7652;53.584;9.998;2022-08-03T14:31:55;5.60;;;1.77;;
15102;SDS011;7652;53.584;9.998;2022-08-03T14:35:13;6.32;;;2.13;;
15102;SDS011;7652;53.584;9.998;2022-08-03T14:38:16;4.80;;;1.90;;
15102;SDS011;7652;53.584;9.998;2022-08-03T14:41:19;3.95;;;1.60;;
15102;SDS011;7652;53.584;9.998;2022-08-03T14:44:23;5.43;;;1.83;;
15102;SDS011;7652;53.584;9.998;2022-08-03T14:47:27;6.53;;;1.88;;
15102;SDS011;7652;53.584;9.998;2022-08-03T14:50:30;2.83;;;1.67;;
15102;SDS011;7652;53.584;9.998;2022-08-03T14:53:44;2.53;;;1.38;;
15102;SDS011;7652;53.584;9.998;2022-08-03T14:56:48;6.75;;;2.05;;
15102;SDS011;7652;53.584;9.998;2022-08-03T14:59:51;3.85;;;1.73;;
15102;SDS011;7652;53.584;9.998;2022-08-03T15:02:59;3.42;;;1.80;;
15102;SDS011;7652;53.584;9.998;2022-08-03T15:06:02;1.60;;;1.38;;
15102;SDS011;7652;53.584;9.998;2022-08-03T15:09:05;6.82;;;1.83;;
15102;SDS011;7652;53.584;9.998;2022-08-03T15:12:24;4.70;;;2.10;;
15102;SDS011;7652;53.584;9.998;2022-08-03T15:15:27;6.35;;;2.22;;
15102;SDS011;7652;53.584;9.998;2022-08-03T15:18:31;5.07;;;2.30;;
15102;SDS011;7652;53.584;9.998;2022-08-03T15:21:34;4.32;;;1.90;;
15102;SDS011;7652;53.584;9.998;2022-08-03T15:24:48;4.80;;;1.73;;
15102;SDS011;7652;53.584;9.998;2022-08-03T15:27:51;7.00;;;1.85;;
15102;SDS011;7652;53.584;9.998;2022-08-03T15:31:04;2.88;;;2.00;;
15102;SDS011;7652;53.584;9.998;2022-08-03T15:34:09;6.70;;;1.80;;
15102;SDS011;7652;53.584;9.998;2022-08-03T15:37:12;2.88;;;1.83;;
15102;SDS011;7652;53.584;9.998;2022-08-03T15:40:23;2.28;;;1.77;;
15102;SDS011;7652;53.584;9.998;2022-08-03T15:43:26;2.88;;;1.75;;
15102;SDS011;7652;53.584;9.998;2022-08-03T15:46:29;4.38;;;1.88;;
15102;SDS011;7652;53.584;9.998;2022-08-03T15:49:33;2.33;;;1.67;;
15102;SDS011;7652;53.584;9.998;2022-08-03T15:52:37;6.78;;;2.00;;
15102;SDS011;7652;53.584;9.998;2022-08-03T15:55:40;6.15;;;1.77;;
15102;SDS011;7652;53.584;9.998;2022-08-03T15:58:44;6.47;;;2.10;;
15102;SDS011;7652;53.584;9.998;2022-08-03T16:02:07;4.43;;;1.70;;
15102;SDS011;7652;53.584;9.998;2022-08-03T16:05:11;5.30;;;1.85;;
15102;SDS011;7652;53.584;9.998;2022-08-03T16:08:14;4.10;;;1.80;;
15102;SDS011;7652;53.584;9.998;2022-08-03T16:11:17;2.70;;;1.92;;
15102;SDS011;7652;53.584;9.998;2022-08-03T16:14:20;2.97;;;1.75;;
15102;SDS011;7652;53.584;9.998;2022-08-03T16:17:38;3.78;;;1.70;;
15102;SDS011;7652;53.584;9.998;2022-08-03T16:20:43;3.40;;;1.95;;
15102;SDS011;7652;53.584;9.998;2022-08-03T16:23:46;5.05;;;1.77;;
15102;SDS011;7652;53.584;9.998;2022-08-03T16:26:51;3.20;;;1.60;;
15102;SDS011;7652;53.584;9.998;2022-08-03T16:29:54;4.05;;;1.40;;
15102;SDS011;7652;53.584;9.998;2022-08-03T16:32:57;3.60;;;1.85;;
15102;SDS011;7652;53.584;9.998;2022-08-03T16:36:02;5.03;;;1.80;;
15102;SDS011;7652;53.584;9.998;2022-08-03T16:39:05;4.43;;;1.80;;
15102;SDS011;7652;53.584;9.998;2022-08-03T16:42:08;4.22;;;1.83;;
15102;SDS011;7652;53.584;9.998;2022-08-03T16:45:11;2.85;;;1.65;;
15102;SDS011;7652;53.584;9.998;2022-08-03T16:48:14;3.15;;;1.77;;
15102;SDS011;7652;53.584;9.998;2022-08-03T16:51:19;4.57;;;1.60;;
15102;SDS011;7652;53.584;9.998;2022-08-03T16:54:23;4.57;;;1.65;;
15102;SDS011;7652;53.584;9.998;2022-08-03T16:57:28;3.60;;;1.90;;
15102;SDS011;7652;53.584;9.998;2022-08-03T17:00:51;3.28;;;1.50;;
15102;SDS011;7652;53.584;9.998;2022-08-03T17:03:58;4.45;;;1.90;;
15102;SDS011;7652;53.584;9.998;2022-08-03T17:07:06;2.92;;;1.67;;
15102;SDS011;7652;53.584;9.998;2022-08-03T17:10:13;3.13;;;1.70;;
15102;SDS011;7652;53.584;9.998;2022-08-03T17:13:22;3.38;;;1.70;;
15102;SDS011;7652;53.584;9.998;2022-08-03T17:16:41;3.55;;;1.73;;
15102;SDS011;7652;53.584;9.998;2022-08-03T17:19:54;3.75;;;1.98;;
15102;SDS011;7652;53.584;9.998;2022-08-03T17:23:02;3.95;;;1.33;;
15102;SDS011;7652;53.584;9.998;2022-08-03T17:26:39;3.33;;;2.00;;
15102;SDS011;7652;53.584;9.998;2022-08-03T17:29:47;5.75;;;1.75;;
15102;SDS011;7652;53.584;9.998;2022-08-03T17:32:53;4.05;;;1.80;;
15102;SDS011;7652;53.584;9.998;2022-08-03T17:35:58;3.28;;;1.80;;
15102;SDS011;7652;53.584;9.998;2022-08-03T17:39:03;4.13;;;1.92;;
15102;SDS011;7652;53.584;9.998;2022-08-03T17:42:09;4.65;;;2.10;;
15102;SDS011;7652;53.584;9.998;2022-08-03T17:45:33;5.90;;;3.10;;
15102;SDS011;7652;53.584;9.998;2022-08-03T17:48:56;5.55;;;2.40;;
15102;SDS011;7652;53.584;9.998;2022-08-03T17:52:00;3.60;;;1.65;;
15102;SDS011;7652;53.584;9.998;2022-08-03T17:55:07;3.28;;;1.88;;
15102;SDS011;7652;53.584;9.998;2022-08-03T17:58:37;4.78;;;1.75;;
15102;SDS011;7652;53.584;9.998;2022-08-03T18:01:55;3.10;;;1.90;;
15102;SDS011;7652;53.584;9.998;2022-08-03T18:05:31;4.50;;;1.80;;
15102;SDS011;7652;53.584;9.998;2022-08-03T18:08:57;6.50;;;2.10;;
15102;SDS011;7652;53.584;9.998;2022-08-03T18:12:25;3.27;;;2.20;;
15102;SDS011;7652;53.584;9.998;2022-08-03T18:15:33;2.73;;;2.00;;
15102;SDS011;7652;53.584;9.998;2022-08-03T18:18:42;2.43;;;2.00;;
15102;SDS011;7652;53.584;9.998;2022-08-03T18:21:50;3.67;;;2.23;;
15102;SDS011;7652;53.584;9.998;2022-08-03T18:25:04;3.93;;;2.10;;
15102;SDS011;7652;53.584;9.998;2022-08-03T18:28:14;5.20;;;3.00;;
15102;SDS011;7652;53.584;9.998;2022-08-03T18:31:23;8.07;;;2.97;;
15102;SDS011;7652;53.584;9.998;2022-08-03T18:34:47;6.13;;;2.93;;
15102;SDS011;7652;53.584;9.998;2022-08-03T18:38:01;6.70;;;2.57;;
15102;SDS011;7652;53.584;9.998;2022-08-03T18:41:10;4.60;;;2.30;;
15102;SDS011;7652;53.584;9.998;2022-08-03T18:44:21;5.23;;;2.27;;
15102;SDS011;7652;53.584;9.998;2022-08-03T18:47:48;4.97;;;2.43;;
15102;SDS011;7652;53.584;9.998;2022-08-03T18:50:58;5.80;;;2.60;;
15102;SDS011;7652;53.584;9.998;2022-08-03T18:54:09;3.80;;;2.33;;
15102;SDS011;7652;53.584;9.998;2022-08-03T18:57:36;4.93;;;2.40;;
15102;SDS011;7652;53.584;9.998;2022-08-03T19:00:49;6.33;;;2.60;;
15102;SDS011;7652;53.584;9.998;2022-08-03T19:04:02;7.50;;;2.70;;
15102;SDS011;7652;53.584;9.998;2022-08-03T19:07:11;4.70;;;2.70;;
15102;SDS011;7652;53.584;9.998;2022-08-03T19:10:24;10.40;;;2.67;;
15102;SDS011;7652;53.584;9.998;2022-08-03T19:13:34;5.80;;;2.40;;
15102;SDS011;7652;53.584;9.998;2022-08-03T19:16:53;6.03;;;2.60;;
15102;SDS011;7652;53.584;9.998;2022-08-03T19:20:06;5.40;;;2.30;;
15102;SDS011;7652;53.584;9.998;2022-08-03T19:23:10;8.03;;;2.50;;